sensor_id;sensor_type;location;lat;lon;timestamp;P1;durP1;ratioP1;P2;durP2;ratioP2
45039;SDS011;30778;53.574;7.770;2023-05-10T00:00:15;7.47;;;5.72;;
45039;SDS011;30778;53.574;7.770;2023-05-10T00:02:42;6.88;;;5.45;;
45039;SDS011;30778;53.574;7.770;2023-05-10T00:05:08;10.07;;;6.43;;
45039;SDS011;30778;53.574;7.770;2023-05-10T00:07:33;6.60;;;5.65;;
45039;SDS011;30778;53.574;7.770;2023-05-10T00:09:58;8.35;;;6.00;;
45039;SDS011;30778;53.574;7.770;2023-05-10T00:12:24;8.05;;;5.63;;
45039;SDS011;30778;53.574;7.770;2023-05-10T00:14:49;7.55;;;6.25;;
45039;SDS011;30778;53.574;7.770;2023-05-10T00:17:15;7.95;;;5.57;;
45039;SDS011;30778;53.574;7.770;2023-05-10T00:19:40;6.80;;;4.97;;
45039;SDS011;30778;53.574;7.770;2023-05-10T00:22:06;7.32;;;5.22;;
45039;SDS011;30778;53.574;7.770;2023-05-10T00:24:31;7.32;;;5.53;;
45039;SDS011;30778;53.574;7.770;2023-05-10T00:26:57;7.68;;;5.57;;
45039;SDS011;30778;53.574;7.770;2023-05-10T00:29:22;9.05;;;6.53;;
45039;SDS011;30778;53.574;7.770;2023-05-10T00:31:48;8.07;;;6.05;;
45039;SDS011;30778;53.574;7.770;2023-05-10T00:34:14;8.10;;;6.40;;
45039;SDS011;30778;53.574;7.770;2023-05-10T00:36:39;8.00;;;6.03;;
45039;SDS011;30778;53.574;7.770;2023-05-10T00:39:06;9.55;;;6.47;;
45039;SDS011;30778;53.574;7.770;2023-05-10T00:41:32;7.40;;;6.13;;
45039;SDS011;30778;53.574;7.770;2023-05-10T00:43:59;7.43;;;5.85;;
45039;SDS011;30778;53.574;7.770;2023-05-10T00:46:25;9.32;;;6.45;;
45039;SDS011;30778;53.574;7.770;2023-05-10T00:48:52;9.65;;;6.68;;
45039;SDS011;30778;53.574;7.770;2023-05-10T00:51:17;9.20;;;7.47;;
45039;SDS011;30778;53.574;7.770;2023-05-10T00:53:43;8.85;;;7.00;;
45039;SDS011;30778;53.574;7.770;2023-05-10T00:56:10;9.70;;;7.55;;
45039;SDS011;30778;53.574;7.770;2023-05-10T00:58:36;8.13;;;7.30;;
45039;SDS011;30778;53.574;7.770;2023-05-10T01:01:01;10.35;;;6.85;;
45039;SDS011;30778;53.574;7.770;2023-05-10T01:03:27;12.20;;;7.43;;
45039;SDS011;30778;53.574;7.770;2023-05-10T01:05:53;13.02;;;7.95;;
45039;SDS011;30778;53.574;7.770;2023-05-10T01:08:18;10.35;;;8.00;;
45039;SDS011;30778;53.574;7.770;2023-05-10T01:10:44;11.85;;;7.97;;
45039;SDS011;30778;53.574;7.770;2023-05-10T01:13:10;12.25;;;9.15;;
45039;SDS011;30778;53.574;7.770;2023-05-10T01:15:37;15.20;;;9.00;;
45039;SDS011;30778;53.574;7.770;2023-05-10T01:18:04;13.82;;;9.10;;
45039;SDS011;30778;53.574;7.770;2023-05-10T01:20:32;12.60;;;8.73;;
45039;SDS011;30778;53.574;7.770;2023-05-10T01:23:12;13.40;;;9.40;;
45039;SDS011;30778;53.574;7.770;2023-05-10T01:34:27;11.73;;;8.48;;
45039;SDS011;30778;53.574;7.770;2023-05-10T01:37:07;9.45;;;7.20;;
45039;SDS011;30778;53.574;7.770;2023-05-10T01:39:58;10.73;;;7.18;;
45039;SDS011;30778;53.574;7.770;2023-05-10T01:42:29;9.07;;;7.55;;
45039;SDS011;30778;53.574;7.770;2023-05-10T01:45:10;11.93;;;7.38;;
45039;SDS011;30778;53.574;7.770;2023-05-10T01:47:43;15.05;;;7.18;;
45039;SDS011;30778;53.574;7.770;2023-05-10T01:50:16;7.43;;;5.88;;
45039;SDS011;30778;53.574;7.770;2023-05-10T01:52:47;7.10;;;5.55;;
45039;SDS011;30778;53.574;7.770;2023-05-10T01:55:20;9.23;;;6.18;;
45039;SDS011;30778;53.574;7.770;2023-05-10T01:57:50;6.50;;;4.55;;
45039;SDS011;30778;53.574;7.770;2023-05-10T02:00:23;6.28;;;4.45;;
45039;SDS011;30778;53.574;7.770;2023-05-10T02:02:50;7.03;;;5.07;;
45039;SDS011;30778;53.574;7.770;2023-05-10T02:05:17;6.75;;;4.22;;
45039;SDS011;30778;53.574;7.770;2023-05-10T02:07:46;7.72;;;4.50;;
45039;SDS011;30778;53.574;7.770;2023-05-10T02:10:12;6.93;;;4.40;;
45039;SDS011;30778;53.574;7.770;2023-05-10T02:12:41;5.93;;;4.55;;
45039;SDS011;30778;53.574;7.770;2023-05-10T02:15:08;7.15;;;4.95;;
45039;SDS011;30778;53.574;7.770;2023-05-10T02:17:35;6.88;;;4.80;;
45039;SDS011;30778;53.574;7.770;2023-05-10T02:20:04;7.03;;;4.40;;
45039;SDS011;30778;53.574;7.770;2023-05-10T02:22:31;5.63;;;3.58;;
45039;SDS011;30778;53.574;7.770;2023-05-10T02:24:58;4.35;;;2.90;;
45039;SDS011;30778;53.574;7.770;2023-05-10T02:27:27;4.28;;;2.55;;
45039;SDS011;30778;53.574;7.770;2023-05-10T02:29:53;3.15;;;2.35;;
45039;SDS011;30778;53.574;7.770;2023-05-10T02:32:21;4.72;;;2.83;;
45039;SDS011;30778;53.574;7.770;2023-05-10T02:34:47;2.85;;;1.98;;
45039;SDS011;30778;53.574;7.770;2023-05-10T02:37:17;3.50;;;2.22;;
45039;SDS011;30778;53.574;7.770;2023-05-10T02:39:46;4.88;;;3.00;;
45039;SDS011;30778;53.574;7.770;2023-05-10T02:42:15;6.38;;;3.80;;
45039;SDS011;30778;53.574;7.770;2023-05-10T02:44:42;6.10;;;3.65;;
45039;SDS011;30778;53.574;7.770;2023-05-10T02:47:10;5.25;;;3.95;;
45039;SDS011;30778;53.574;7.770;2023-05-10T02:49:36;6.43;;;4.15;;
45039;SDS011;30778;53.574;7.770;2023-05-10T02:52:01;6.53;;;4.82;;
45039;SDS011;30778;53.574;7.770;2023-05-10T02:54:33;7.68;;;4.75;;
45039;SDS011;30778;53.574;7.770;2023-05-10T02:59:30;8.27;;;4.70;;
45039;SDS011;30778;53.574;7.770;2023-05-10T03:01:58;8.25;;;4.68;;
45039;SDS011;30778;53.574;7.770;2023-05-10T03:04:25;6.43;;;4.20;;
45039;SDS011;30778;53.574;7.770;2023-05-10T03:06:53;8.77;;;5.53;;
45039;SDS011;30778;53.574;7.770;2023-05-10T03:09:19;9.18;;;5.00;;
45039;SDS011;30778;53.574;7.770;2023-05-10T03:14:57;7.30;;;4.30;;
45039;SDS011;30778;53.574;7.770;2023-05-10T03:20:31;8.40;;;5.45;;
45039;SDS011;30778;53.574;7.770;2023-05-10T03:23:04;7.00;;;4.57;;
45039;SDS011;30778;53.574;7.770;2023-05-10T03:25:36;7.95;;;4.95;;
45039;SDS011;30778;53.574;7.770;2023-05-10T03:28:04;7.82;;;5.43;;
45039;SDS011;30778;53.574;7.770;2023-05-10T03:30:31;7.68;;;4.85;;
45039;SDS011;30778;53.574;7.770;2023-05-10T03:33:03;8.23;;;4.78;;
45039;SDS011;30778;53.574;7.770;2023-05-10T03:35:30;8.55;;;5.00;;
45039;SDS011;30778;53.574;7.770;2023-05-10T03:37:55;8.27;;;4.47;;
45039;SDS011;30778;53.574;7.770;2023-05-10T03:40:21;7.90;;;4.43;;
45039;SDS011;30778;53.574;7.770;2023-05-10T03:42:48;8.32;;;5.15;;
45039;SDS011;30778;53.574;7.770;2023-05-10T03:45:13;8.57;;;4.32;;
45039;SDS011;30778;53.574;7.770;2023-05-10T03:47:39;7.82;;;4.70;;
45039;SDS011;30778;53.574;7.770;2023-05-10T03:50:06;8.10;;;5.35;;
45039;SDS011;30778;53.574;7.770;2023-05-10T03:52:32;9.13;;;5.40;;
45039;SDS011;30778;53.574;7.770;2023-05-10T03:54:58;7.53;;;5.22;;
45039;SDS011;30778;53.574;7.770;2023-05-10T03:57:23;13.02;;;6.40;;
45039;SDS011;30778;53.574;7.770;2023-05-10T03:59:49;7.25;;;4.60;;
45039;SDS011;30778;53.574;7.770;2023-05-10T04:02:16;9.30;;;5.38;;
45039;SDS011;30778;53.574;7.770;2023-05-10T04:04:41;9.82;;;6.13;;
45039;SDS011;30778;53.574;7.770;2023-05-10T04:07:07;11.65;;;6.72;;
45039;SDS011;30778;53.574;7.770;2023-05-10T04:09:33;10.77;;;6.47;;
45039;SDS011;30778;53.574;7.770;2023-05-10T04:11:59;9.95;;;5.75;;
45039;SDS011;30778;53.574;7.770;2023-05-10T04:14:25;11.05;;;5.72;;
45039;SDS011;30778;53.574;7.770;2023-05-10T04:16:51;8.95;;;5.05;;
45039;SDS011;30778;53.574;7.770;2023-05-10T04:19:16;11.50;;;6.22;;
45039;SDS011;30778;53.574;7.770;2023-05-10T04:21:42;10.55;;;6.15;;
45039;SDS011;30778;53.574;7.770;2023-05-10T04:24:07;10.75;;;5.97;;
45039;SDS011;30778;53.574;7.770;2023-05-10T04:26:33;5.97;;;4.60;;
45039;SDS011;30778;53.574;7.770;2023-05-10T04:28:58;7.13;;;4.47;;
45039;SDS011;30778;53.574;7.770;2023-05-10T04:31:23;6.15;;;3.28;;
45039;SDS011;30778;53.574;7.770;2023-05-10T04:33:49;7.75;;;4.40;;
45039;SDS011;30778;53.574;7.770;2023-05-10T04:36:15;6.05;;;4.03;;
45039;SDS011;30778;53.574;7.770;2023-05-10T04:38:40;6.57;;;4.13;;
45039;SDS011;30778;53.574;7.770;2023-05-10T04:41:06;8.32;;;5.20;;
45039;SDS011;30778;53.574;7.770;2023-05-10T04:43:33;5.82;;;4.45;;
45039;SDS011;30778;53.574;7.770;2023-05-10T04:45:58;6.45;;;4.60;;
45039;SDS011;30778;53.574;7.770;2023-05-10T04:48:24;5.78;;;4.00;;
45039;SDS011;30778;53.574;7.770;2023-05-10T04:50:49;8.70;;;5.55;;
45039;SDS011;30778;53.574;7.770;2023-05-10T04:53:15;6.72;;;4.20;;
45039;SDS011;30778;53.574;7.770;2023-05-10T04:55:40;7.15;;;5.28;;
45039;SDS011;30778;53.574;7.770;2023-05-10T04:58:06;8.50;;;5.18;;
45039;SDS011;30778;53.574;7.770;2023-05-10T05:00:31;8.32;;;4.97;;
45039;SDS011;30778;53.574;7.770;2023-05-10T05:02:58;8.65;;;5.25;;
45039;SDS011;30778;53.574;7.770;2023-05-10T05:05:23;9.52;;;5.85;;
45039;SDS011;30778;53.574;7.770;2023-05-10T05:07:49;9.00;;;5.65;;
45039;SDS011;30778;53.574;7.770;2023-05-10T05:10:15;8.02;;;5.32;;
45039;SDS011;30778;53.574;7.770;2023-05-10T05:12:41;9.40;;;4.72;;
45039;SDS011;30778;53.574;7.770;2023-05-10T05:15:07;8.70;;;5.53;;
45039;SDS011;30778;53.574;7.770;2023-05-10T05:17:35;8.98;;;5.47;;
45039;SDS011;30778;53.574;7.770;2023-05-10T05:20:00;8.68;;;5.20;;
45039;SDS011;30778;53.574;7.770;2023-05-10T05:22:26;9.18;;;6.10;;
45039;SDS011;30778;53.574;7.770;2023-05-10T05:24:53;9.75;;;5.85;;
45039;SDS011;30778;53.574;7.770;2023-05-10T05:27:20;8.27;;;5.38;;
45039;SDS011;30778;53.574;7.770;2023-05-10T05:29:52;11.63;;;6.20;;
45039;SDS011;30778;53.574;7.770;2023-05-10T05:32:24;7.55;;;5.35;;
45039;SDS011;30778;53.574;7.770;2023-05-10T05:34:50;9.23;;;5.88;;
45039;SDS011;30778;53.574;7.770;2023-05-10T05:37:17;9.18;;;5.93;;
45039;SDS011;30778;53.574;7.770;2023-05-10T05:39:43;8.93;;;6.30;;
45039;SDS011;30778;53.574;7.770;2023-05-10T05:42:10;12.02;;;6.78;;
45039;SDS011;30778;53.574;7.770;2023-05-10T05:44:36;11.45;;;6.65;;
45039;SDS011;30778;53.574;7.770;2023-05-10T05:47:02;12.27;;;7.35;;
45039;SDS011;30778;53.574;7.770;2023-05-10T05:49:28;12.15;;;7.07;;
45039;SDS011;30778;53.574;7.770;2023-05-10T05:51:54;11.85;;;7.05;;
45039;SDS011;30778;53.574;7.770;2023-05-10T05:54:23;12.40;;;7.20;;
45039;SDS011;30778;53.574;7.770;2023-05-10T05:56:49;11.07;;;7.32;;
45039;SDS011;30778;53.574;7.770;2023-05-10T05:59:14;11.20;;;7.35;;
45039;SDS011;30778;53.574;7.770;2023-05-10T06:01:40;10.10;;;6.43;;
45039;SDS011;30778;53.574;7.770;2023-05-10T06:04:06;9.50;;;6.28;;
45039;SDS011;30778;53.574;7.770;2023-05-10T06:06:31;8.70;;;6.10;;
45039;SDS011;30778;53.574;7.770;2023-05-10T06:08:57;8.30;;;6.13;;
45039;SDS011;30778;53.574;7.770;2023-05-10T06:11:23;8.27;;;5.28;;
45039;SDS011;30778;53.574;7.770;2023-05-10T06:13:49;9.30;;;5.90;;
45039;SDS011;30778;53.574;7.770;2023-05-10T06:16:14;9.18;;;6.10;;
45039;SDS011;30778;53.574;7.770;2023-05-10T06:18:40;8.38;;;5.32;;
45039;SDS011;30778;53.574;7.770;2023-05-10T06:21:06;9.90;;;5.88;;
45039;SDS011;30778;53.574;7.770;2023-05-10T06:23:32;9.13;;;5.70;;
45039;SDS011;30778;53.574;7.770;2023-05-10T06:25:58;7.70;;;5.75;;
45039;SDS011;30778;53.574;7.770;2023-05-10T06:28:24;6.57;;;3.97;;
45039;SDS011;30778;53.574;7.770;2023-05-10T06:30:49;6.57;;;4.55;;
45039;SDS011;30778;53.574;7.770;2023-05-10T06:33:15;7.32;;;5.35;;
45039;SDS011;30778;53.574;7.770;2023-05-10T06:35:41;5.50;;;4.30;;
45039;SDS011;30778;53.574;7.770;2023-05-10T06:38:07;7.25;;;4.72;;
45039;SDS011;30778;53.574;7.770;2023-05-10T06:40:33;7.25;;;4.53;;
45039;SDS011;30778;53.574;7.770;2023-05-10T06:42:58;6.28;;;4.35;;
45039;SDS011;30778;53.574;7.770;2023-05-10T06:45:27;5.93;;;4.32;;
45039;SDS011;30778;53.574;7.770;2023-05-10T06:47:52;6.40;;;4.18;;
45039;SDS011;30778;53.574;7.770;2023-05-10T06:50:18;5.82;;;3.67;;
45039;SDS011;30778;53.574;7.770;2023-05-10T06:52:44;6.18;;;4.10;;
45039;SDS011;30778;53.574;7.770;2023-05-10T06:55:09;6.05;;;4.13;;
45039;SDS011;30778;53.574;7.770;2023-05-10T06:57:35;6.18;;;4.63;;
45039;SDS011;30778;53.574;7.770;2023-05-10T07:00:01;4.40;;;3.45;;
45039;SDS011;30778;53.574;7.770;2023-05-10T07:02:29;4.60;;;3.70;;
45039;SDS011;30778;53.574;7.770;2023-05-10T07:04:55;5.38;;;3.75;;
45039;SDS011;30778;53.574;7.770;2023-05-10T07:07:20;3.60;;;3.17;;
45039;SDS011;30778;53.574;7.770;2023-05-10T07:09:46;4.25;;;3.55;;
45039;SDS011;30778;53.574;7.770;2023-05-10T07:12:12;4.75;;;3.33;;
45039;SDS011;30778;53.574;7.770;2023-05-10T07:14:40;5.13;;;3.97;;
45039;SDS011;30778;53.574;7.770;2023-05-10T07:17:15;7.38;;;3.60;;
45039;SDS011;30778;53.574;7.770;2023-05-10T07:19:41;3.92;;;3.30;;
45039;SDS011;30778;53.574;7.770;2023-05-10T07:22:09;5.30;;;2.85;;
45039;SDS011;30778;53.574;7.770;2023-05-10T07:24:37;4.97;;;3.70;;
45039;SDS011;30778;53.574;7.770;2023-05-10T07:27:02;5.53;;;4.10;;
45039;SDS011;30778;53.574;7.770;2023-05-10T07:29:32;4.15;;;3.63;;
45039;SDS011;30778;53.574;7.770;2023-05-10T07:31:58;5.10;;;3.65;;
45039;SDS011;30778;53.574;7.770;2023-05-10T07:34:28;4.20;;;3.28;;
45039;SDS011;30778;53.574;7.770;2023-05-10T07:36:56;4.63;;;3.75;;
45039;SDS011;30778;53.574;7.770;2023-05-10T07:39:25;4.57;;;3.42;;
45039;SDS011;30778;53.574;7.770;2023-05-10T07:41:51;3.97;;;3.53;;
45039;SDS011;30778;53.574;7.770;2023-05-10T07:44:17;5.70;;;4.05;;
45039;SDS011;30778;53.574;7.770;2023-05-10T07:46:45;4.53;;;3.25;;
45039;SDS011;30778;53.574;7.770;2023-05-10T07:49:14;5.82;;;4.47;;
45039;SDS011;30778;53.574;7.770;2023-05-10T07:51:40;6.95;;;3.33;;
45039;SDS011;30778;53.574;7.770;2023-05-10T07:54:07;5.80;;;3.67;;
45039;SDS011;30778;53.574;7.770;2023-05-10T07:56:32;4.93;;;3.28;;
45039;SDS011;30778;53.574;7.770;2023-05-10T07:58:59;4.25;;;3.75;;
45039;SDS011;30778;53.574;7.770;2023-05-10T08:01:25;6.03;;;4.00;;
45039;SDS011;30778;53.574;7.770;2023-05-10T08:03:51;6.03;;;4.72;;
45039;SDS011;30778;53.574;7.770;2023-05-10T08:06:20;5.28;;;3.97;;
45039;SDS011;30778;53.574;7.770;2023-05-10T08:08:48;5.63;;;3.63;;
45039;SDS011;30778;53.574;7.770;2023-05-10T08:11:19;4.90;;;3.80;;
45039;SDS011;30778;53.574;7.770;2023-05-10T08:13:54;7.38;;;3.95;;
45039;SDS011;30778;53.574;7.770;2023-05-10T08:16:20;4.07;;;2.97;;
45039;SDS011;30778;53.574;7.770;2023-05-10T08:18:46;9.38;;;3.85;;
45039;SDS011;30778;53.574;7.770;2023-05-10T08:21:17;5.18;;;3.22;;
45039;SDS011;30778;53.574;7.770;2023-05-10T08:23:43;6.18;;;3.90;;
45039;SDS011;30778;53.574;7.770;2023-05-10T08:26:09;6.32;;;4.35;;
45039;SDS011;30778;53.574;7.770;2023-05-10T08:28:41;5.30;;;3.70;;
45039;SDS011;30778;53.574;7.770;2023-05-10T08:31:07;5.60;;;4.05;;
45039;SDS011;30778;53.574;7.770;2023-05-10T08:33:32;6.93;;;3.38;;
45039;SDS011;30778;53.574;7.770;2023-05-10T08:35:58;5.70;;;3.15;;
45039;SDS011;30778;53.574;7.770;2023-05-10T08:38:26;6.35;;;3.83;;
45039;SDS011;30778;53.574;7.770;2023-05-10T08:40:52;4.07;;;3.38;;
45039;SDS011;30778;53.574;7.770;2023-05-10T08:43:21;3.47;;;2.70;;
45039;SDS011;30778;53.574;7.770;2023-05-10T08:45:51;3.85;;;2.78;;
45039;SDS011;30778;53.574;7.770;2023-05-10T08:48:25;5.15;;;3.22;;
45039;SDS011;30778;53.574;7.770;2023-05-10T08:50:59;5.40;;;3.15;;
45039;SDS011;30778;53.574;7.770;2023-05-10T08:53:27;3.55;;;2.92;;
45039;SDS011;30778;53.574;7.770;2023-05-10T08:55:55;4.20;;;3.28;;
45039;SDS011;30778;53.574;7.770;2023-05-10T08:58:21;4.78;;;3.20;;
45039;SDS011;30778;53.574;7.770;2023-05-10T09:00:48;5.22;;;3.08;;
45039;SDS011;30778;53.574;7.770;2023-05-10T09:03:22;3.35;;;2.45;;
45039;SDS011;30778;53.574;7.770;2023-05-10T09:05:48;4.03;;;3.25;;
45039;SDS011;30778;53.574;7.770;2023-05-10T09:08:14;3.13;;;2.38;;
45039;SDS011;30778;53.574;7.770;2023-05-10T09:10:42;4.28;;;2.95;;
45039;SDS011;30778;53.574;7.770;2023-05-10T09:13:09;3.88;;;2.88;;
45039;SDS011;30778;53.574;7.770;2023-05-10T09:15:39;6.63;;;3.45;;
45039;SDS011;30778;53.574;7.770;2023-05-10T09:18:14;5.20;;;2.97;;
45039;SDS011;30778;53.574;7.770;2023-05-10T09:20:42;4.45;;;2.85;;
45039;SDS011;30778;53.574;7.770;2023-05-10T09:23:08;3.63;;;2.38;;
45039;SDS011;30778;53.574;7.770;2023-05-10T09:25:34;4.60;;;3.22;;
45039;SDS011;30778;53.574;7.770;2023-05-10T09:28:00;4.45;;;3.45;;
45039;SDS011;30778;53.574;7.770;2023-05-10T09:30:29;6.13;;;4.13;;
45039;SDS011;30778;53.574;7.770;2023-05-10T09:32:56;6.30;;;4.63;;
45039;SDS011;30778;53.574;7.770;2023-05-10T09:35:24;4.43;;;3.42;;
45039;SDS011;30778;53.574;7.770;2023-05-10T09:37:52;4.72;;;2.95;;
45039;SDS011;30778;53.574;7.770;2023-05-10T09:40:21;3.15;;;2.35;;
45039;SDS011;30778;53.574;7.770;2023-05-10T09:45:23;3.65;;;2.60;;
45039;SDS011;30778;53.574;7.770;2023-05-10T09:47:50;4.60;;;2.70;;
45039;SDS011;30778;53.574;7.770;2023-05-10T09:50:16;4.03;;;2.13;;
45039;SDS011;30778;53.574;7.770;2023-05-10T09:52:49;5.20;;;2.97;;
45039;SDS011;30778;53.574;7.770;2023-05-10T09:55:26;3.03;;;2.20;;
45039;SDS011;30778;53.574;7.770;2023-05-10T09:58:04;3.15;;;2.42;;
45039;SDS011;30778;53.574;7.770;2023-05-10T10:00:35;2.40;;;1.40;;
45039;SDS011;30778;53.574;7.770;2023-05-10T10:03:02;1.90;;;1.40;;
45039;SDS011;30778;53.574;7.770;2023-05-10T10:05:29;1.88;;;1.23;;
45039;SDS011;30778;53.574;7.770;2023-05-10T10:07:55;1.60;;;0.90;;
45039;SDS011;30778;53.574;7.770;2023-05-10T10:10:25;1.98;;;1.05;;
45039;SDS011;30778;53.574;7.770;2023-05-10T10:12:51;2.15;;;0.85;;
45039;SDS011;30778;53.574;7.770;2023-05-10T10:15:21;1.50;;;0.65;;
45039;SDS011;30778;53.574;7.770;2023-05-10T10:17:52;1.03;;;0.30;;
45039;SDS011;30778;53.574;7.770;2023-05-10T10:20:24;1.30;;;0.50;;
45039;SDS011;30778;53.574;7.770;2023-05-10T10:22:55;0.70;;;0.30;;
45039;SDS011;30778;53.574;7.770;2023-05-10T10:25:23;1.15;;;0.40;;
45039;SDS011;30778;53.574;7.770;2023-05-10T10:35:59;2.10;;;0.77;;
45039;SDS011;30778;53.574;7.770;2023-05-10T10:41:31;1.30;;;0.98;;
45039;SDS011;30778;53.574;7.770;2023-05-10T10:57:44;2.47;;;0.82;;
45039;SDS011;30778;53.574;7.770;2023-05-10T11:00:40;1.55;;;0.95;;
45039;SDS011;30778;53.574;7.770;2023-05-10T11:03:13;2.03;;;1.00;;
45039;SDS011;30778;53.574;7.770;2023-05-10T11:05:42;4.82;;;1.30;;
45039;SDS011;30778;53.574;7.770;2023-05-10T11:11:02;3.53;;;1.27;;
45039;SDS011;30778;53.574;7.770;2023-05-10T11:13:41;2.35;;;1.00;;
45039;SDS011;30778;53.574;7.770;2023-05-10T11:16:16;2.20;;;0.65;;
45039;SDS011;30778;53.574;7.770;2023-05-10T11:21:21;1.70;;;0.50;;
45039;SDS011;30778;53.574;7.770;2023-05-10T11:23:51;1.93;;;0.80;;
45039;SDS011;30778;53.574;7.770;2023-05-10T11:26:35;1.25;;;0.45;;
45039;SDS011;30778;53.574;7.770;2023-05-10T11:29:15;1.60;;;0.40;;
45039;SDS011;30778;53.574;7.770;2023-05-10T11:31:56;8.65;;;0.52;;
45039;SDS011;30778;53.574;7.770;2023-05-10T11:34:26;2.25;;;0.60;;
45039;SDS011;30778;53.574;7.770;2023-05-10T11:36:59;2.67;;;0.90;;
45039;SDS011;30778;53.574;7.770;2023-05-10T11:42:15;4.00;;;1.75;;
45039;SDS011;30778;53.574;7.770;2023-05-10T11:44:40;2.63;;;1.10;;
45039;SDS011;30778;53.574;7.770;2023-05-10T11:47:07;3.13;;;0.85;;
45039;SDS011;30778;53.574;7.770;2023-05-10T11:49:33;5.75;;;1.02;;
45039;SDS011;30778;53.574;7.770;2023-05-10T11:52:08;2.05;;;0.60;;
45039;SDS011;30778;53.574;7.770;2023-05-10T11:54:36;4.20;;;1.15;;
45039;SDS011;30778;53.574;7.770;2023-05-10T11:57:02;1.95;;;0.40;;
45039;SDS011;30778;53.574;7.770;2023-05-10T11:59:28;3.00;;;0.40;;
45039;SDS011;30778;53.574;7.770;2023-05-10T12:01:54;1.40;;;0.40;;
45039;SDS011;30778;53.574;7.770;2023-05-10T12:04:20;1.35;;;0.25;;
45039;SDS011;30778;53.574;7.770;2023-05-10T12:06:46;1.85;;;0.50;;
45039;SDS011;30778;53.574;7.770;2023-05-10T12:09:14;1.70;;;0.45;;
45039;SDS011;30778;53.574;7.770;2023-05-10T12:11:41;1.55;;;0.60;;
45039;SDS011;30778;53.574;7.770;2023-05-10T12:14:11;0.90;;;0.30;;
45039;SDS011;30778;53.574;7.770;2023-05-10T12:16:37;1.85;;;0.28;;
45039;SDS011;30778;53.574;7.770;2023-05-10T12:19:03;0.95;;;0.20;;
45039;SDS011;30778;53.574;7.770;2023-05-10T12:21:29;0.63;;;0.20;;
45039;SDS011;30778;53.574;7.770;2023-05-10T12:24:01;1.98;;;0.30;;
45039;SDS011;30778;53.574;7.770;2023-05-10T12:26:28;1.02;;;0.52;;
45039;SDS011;30778;53.574;7.770;2023-05-10T12:28:54;1.67;;;0.85;;
45039;SDS011;30778;53.574;7.770;2023-05-10T12:31:20;2.30;;;0.80;;
45039;SDS011;30778;53.574;7.770;2023-05-10T12:33:46;2.22;;;0.98;;
45039;SDS011;30778;53.574;7.770;2023-05-10T12:36:15;1.30;;;0.70;;
45039;SDS011;30778;53.574;7.770;2023-05-10T12:38:42;2.22;;;1.60;;
45039;SDS011;30778;53.574;7.770;2023-05-10T12:41:09;3.08;;;1.77;;
45039;SDS011;30778;53.574;7.770;2023-05-10T12:43:36;3.50;;;3.13;;
45039;SDS011;30778;53.574;7.770;2023-05-10T12:48:31;6.43;;;5.25;;
45039;SDS011;30778;53.574;7.770;2023-05-10T12:50:58;6.70;;;5.45;;
45039;SDS011;30778;53.574;7.770;2023-05-10T12:53:24;7.10;;;5.78;;
45039;SDS011;30778;53.574;7.770;2023-05-10T12:55:49;7.28;;;5.78;;
45039;SDS011;30778;53.574;7.770;2023-05-10T12:58:17;7.22;;;6.22;;
45039;SDS011;30778;53.574;7.770;2023-05-10T13:00:42;6.35;;;5.75;;
45039;SDS011;30778;53.574;7.770;2023-05-10T13:03:08;7.47;;;6.43;;
45039;SDS011;30778;53.574;7.770;2023-05-10T13:05:58;7.15;;;6.20;;
45039;SDS011;30778;53.574;7.770;2023-05-10T13:08:23;6.68;;;5.93;;
45039;SDS011;30778;53.574;7.770;2023-05-10T13:10:51;7.22;;;5.40;;
45039;SDS011;30778;53.574;7.770;2023-05-10T13:13:17;5.82;;;5.28;;
45039;SDS011;30778;53.574;7.770;2023-05-10T13:15:45;5.38;;;4.50;;
45039;SDS011;30778;53.574;7.770;2023-05-10T13:18:10;5.50;;;4.45;;
45039;SDS011;30778;53.574;7.770;2023-05-10T13:20:38;4.57;;;3.75;;
45039;SDS011;30778;53.574;7.770;2023-05-10T13:23:06;4.07;;;3.28;;
45039;SDS011;30778;53.574;7.770;2023-05-10T13:25:34;3.33;;;2.95;;
45039;SDS011;30778;53.574;7.770;2023-05-10T13:27:59;4.90;;;3.40;;
45039;SDS011;30778;53.574;7.770;2023-05-10T13:30:25;3.15;;;2.33;;
45039;SDS011;30778;53.574;7.770;2023-05-10T13:32:50;2.38;;;1.95;;
45039;SDS011;30778;53.574;7.770;2023-05-10T13:35:18;3.97;;;2.72;;
45039;SDS011;30778;53.574;7.770;2023-05-10T13:37:47;2.88;;;1.77;;
45039;SDS011;30778;53.574;7.770;2023-05-10T13:40:12;5.65;;;2.45;;
45039;SDS011;30778;53.574;7.770;2023-05-10T13:42:38;3.05;;;1.98;;
45039;SDS011;30778;53.574;7.770;2023-05-10T13:45:04;3.30;;;1.98;;
45039;SDS011;30778;53.574;7.770;2023-05-10T13:47:30;4.72;;;1.25;;
45039;SDS011;30778;53.574;7.770;2023-05-10T13:49:56;1.50;;;1.02;;
45039;SDS011;30778;53.574;7.770;2023-05-10T13:52:22;4.57;;;1.35;;
45039;SDS011;30778;53.574;7.770;2023-05-10T13:54:47;2.65;;;1.23;;
45039;SDS011;30778;53.574;7.770;2023-05-10T13:57:13;2.00;;;1.02;;
45039;SDS011;30778;53.574;7.770;2023-05-10T13:59:41;1.67;;;0.93;;
45039;SDS011;30778;53.574;7.770;2023-05-10T14:02:07;1.30;;;0.70;;
45039;SDS011;30778;53.574;7.770;2023-05-10T14:04:32;5.03;;;0.47;;
45039;SDS011;30778;53.574;7.770;2023-05-10T14:07:03;1.50;;;0.50;;
45039;SDS011;30778;53.574;7.770;2023-05-10T14:09:28;0.82;;;0.47;;
45039;SDS011;30778;53.574;7.770;2023-05-10T14:11:53;3.17;;;0.40;;
45039;SDS011;30778;53.574;7.770;2023-05-10T14:14:19;0.63;;;0.20;;
45039;SDS011;30778;53.574;7.770;2023-05-10T14:16:44;2.63;;;0.35;;
45039;SDS011;30778;53.574;7.770;2023-05-10T14:19:12;1.88;;;0.30;;
45039;SDS011;30778;53.574;7.770;2023-05-10T14:21:38;0.60;;;0.20;;
45039;SDS011;30778;53.574;7.770;2023-05-10T14:24:03;2.67;;;0.30;;
45039;SDS011;30778;53.574;7.770;2023-05-10T14:26:29;0.30;;;0.10;;
45039;SDS011;30778;53.574;7.770;2023-05-10T14:28:55;1.08;;;0.40;;
45039;SDS011;30778;53.574;7.770;2023-05-10T14:31:20;2.28;;;0.82;;
45039;SDS011;30778;53.574;7.770;2023-05-10T14:33:46;1.80;;;0.80;;
45039;SDS011;30778;53.574;7.770;2023-05-10T14:36:14;1.80;;;1.30;;
45039;SDS011;30778;53.574;7.770;2023-05-10T14:38:40;5.00;;;1.33;;
45039;SDS011;30778;53.574;7.770;2023-05-10T14:41:06;2.67;;;1.98;;
45039;SDS011;30778;53.574;7.770;2023-05-10T14:43:31;2.92;;;1.25;;
45039;SDS011;30778;53.574;7.770;2023-05-10T14:45:57;1.73;;;1.10;;
45039;SDS011;30778;53.574;7.770;2023-05-10T14:48:22;2.15;;;1.48;;
45039;SDS011;30778;53.574;7.770;2023-05-10T14:50:48;3.05;;;2.50;;
45039;SDS011;30778;53.574;7.770;2023-05-10T14:53:15;3.90;;;2.08;;
45039;SDS011;30778;53.574;7.770;2023-05-10T14:55:40;4.35;;;1.55;;
45039;SDS011;30778;53.574;7.770;2023-05-10T14:58:06;2.53;;;1.42;;
45039;SDS011;30778;53.574;7.770;2023-05-10T15:00:31;3.28;;;1.42;;
45039;SDS011;30778;53.574;7.770;2023-05-10T15:02:57;2.45;;;1.50;;
45039;SDS011;30778;53.574;7.770;2023-05-10T15:05:24;3.03;;;1.77;;
45039;SDS011;30778;53.574;7.770;2023-05-10T15:07:49;4.15;;;2.13;;
45039;SDS011;30778;53.574;7.770;2023-05-10T15:10:15;3.65;;;1.48;;
45039;SDS011;30778;53.574;7.770;2023-05-10T15:12:41;3.97;;;1.58;;
45039;SDS011;30778;53.574;7.770;2023-05-10T15:15:06;3.38;;;2.10;;
45039;SDS011;30778;53.574;7.770;2023-05-10T15:17:32;3.30;;;1.98;;
45039;SDS011;30778;53.574;7.770;2023-05-10T15:19:58;3.97;;;2.15;;
45039;SDS011;30778;53.574;7.770;2023-05-10T15:22:23;7.93;;;2.35;;
45039;SDS011;30778;53.574;7.770;2023-05-10T15:24:49;3.22;;;2.03;;
45039;SDS011;30778;53.574;7.770;2023-05-10T15:27:15;4.95;;;1.95;;
45039;SDS011;30778;53.574;7.770;2023-05-10T15:29:40;4.80;;;2.92;;
45039;SDS011;30778;53.574;7.770;2023-05-10T15:32:10;4.72;;;3.28;;
45039;SDS011;30778;53.574;7.770;2023-05-10T15:34:36;6.22;;;3.20;;
45039;SDS011;30778;53.574;7.770;2023-05-10T15:37:01;5.35;;;3.20;;
45039;SDS011;30778;53.574;7.770;2023-05-10T15:39:27;6.30;;;2.53;;
45039;SDS011;30778;53.574;7.770;2023-05-10T15:41:52;9.35;;;3.03;;